Time;durP1;ratioP1;P1;durP2;ratioP2;P2;SDS_P1;SDS_P2;PMS_P1;PMS_P2;Temp;Humidity;BMP_temperature;BMP_pressure;BME280_temperature;BME280_humidity;BME280_pressure;Samples;Min_cycle;Max_cycle;Signal;HPM_P1;HPM_P2
2023/06/13 00:00:08;;;;;;;3.00;2.40;;;21.30;55.50;;;;;;5116667;27;45276;-70
2023/06/13 00:02:37;;;;;;;6.03;2.95;;;21.30;55.80;;;;;;5118097;27;45442;-70
2023/06/13 00:05:05;;;;;;;4.85;2.75;;;21.20;55.40;;;;;;5115248;27;47396;-70
2023/06/13 00:07:32;;;;;;;3.90;2.60;;;21.10;55.90;;;;;;5117245;27;45433;-70
2023/06/13 00:09:59;;;;;;;3.78;2.92;;;21.10;55.30;;;;;;5118635;27;45710;-70
2023/06/13 00:12:26;;;;;;;5.32;2.78;;;21.00;55.20;;;;;;5116432;27;45708;-69
2023/06/13 00:14:53;;;;;;;3.67;2.75;;;21.00;55.00;;;;;;5124215;27;48019;-70
2023/06/13 00:17:24;;;;;;;6.13;3.25;;;20.90;55.90;;;;;;5123800;27;45592;-70
2023/06/13 00:19:54;;;;;;;4.97;2.50;;;20.90;55.10;;;;;;5123616;27;45709;-70
2023/06/13 00:22:21;;;;;;;4.60;2.97;;;20.90;55.50;;;;;;5116664;27;46198;-69
2023/06/13 00:24:47;;;;;;;7.25;3.22;;;20.80;55.00;;;;;;5119748;27;45516;-70
2023/06/13 00:27:14;;;;;;;4.60;2.78;;;20.80;56.70;;;;;;5127172;27;45419;-69
2023/06/13 00:29:41;;;;;;;5.13;3.10;;;20.80;55.60;;;;;;5122907;27;45640;-70
2023/06/13 00:32:08;;;;;;;5.90;2.95;;;20.70;55.50;;;;;;5121999;27;45511;-70
2023/06/13 00:34:38;;;;;;;10.77;2.85;;;20.70;55.70;;;;;;5118372;27;47356;-70
2023/06/13 00:37:05;;;;;;;5.53;2.95;;;20.60;55.70;;;;;;5125439;27;45938;-70
2023/06/13 00:39:32;;;;;;;3.55;2.45;;;20.60;56.70;;;;;;5129828;27;45290;-69
2023/06/13 00:42:01;;;;;;;5.50;2.92;;;20.60;56.20;;;;;;5122160;27;45366;-70
2023/06/13 00:44:28;;;;;;;8.32;3.05;;;20.60;56.30;;;;;;5123045;27;47556;-69
2023/06/13 00:46:55;;;;;;;4.10;2.58;;;20.50;55.60;;;;;;5123986;27;45553;-70
2023/06/13 00:49:22;;;;;;;4.25;2.72;;;20.40;55.90;;;;;;5124165;27;45460;-69
2023/06/13 00:51:51;;;;;;;8.10;2.65;;;20.30;55.90;;;;;;5122325;27;45336;-69
2023/06/13 00:54:18;;;;;;;6.22;2.90;;;20.20;55.50;;;;;;5119072;27;45369;-69
2023/06/13 00:56:46;;;;;;;6.53;3.05;;;20.20;56.30;;;;;;5124161;27;45446;-70
2023/06/13 00:59:14;;;;;;;8.50;3.15;;;20.10;56.40;;;;;;5124676;27;45257;-69
2023/06/13 01:01:42;;;;;;;5.82;3.10;;;20.10;56.60;;;;;;5126786;27;45391;-69
2023/06/13 01:04:09;;;;;;;6.13;2.97;;;20.00;56.70;;;;;;5127639;27;47733;-70
2023/06/13 01:06:40;;;;;;;3.95;2.80;;;19.90;56.70;;;;;;5124219;27;45388;-69
2023/06/13 01:09:09;;;;;;;8.73;2.80;;;19.90;56.70;;;;;;5126726;27;45339;-69
2023/06/13 01:11:46;;;;;;;9.20;3.40;;;19.90;57.10;;;;;;5119867;27;45415;-70
2023/06/13 01:14:20;;;;;;;5.05;3.10;;;19.80;56.90;;;;;;5129100;27;45521;-70
2023/06/13 01:16:54;;;;;;;5.63;3.15;;;19.80;57.50;;;;;;5127765;27;45556;-69
2023/06/13 01:19:31;;;;;;;6.57;2.90;;;19.80;57.40;;;;;;5121000;27;45313;-69
2023/06/13 01:21:59;;;;;;;8.25;2.95;;;19.70;57.70;;;;;;5127149;27;45473;-69
2023/06/13 01:24:38;;;;;;;5.95;3.05;;;19.80;57.70;;;;;;5121547;27;48225;-70
2023/06/13 01:27:10;;;;;;;11.15;3.40;;;19.80;57.20;;;;;;5124615;27;45326;-69
2023/06/13 01:29:38;;;;;;;8.88;3.20;;;19.80;57.50;;;;;;5121719;27;45420;-69
2023/06/13 01:32:07;;;;;;;7.35;3.17;;;19.80;57.30;;;;;;5121150;27;45300;-69
2023/06/13 01:34:34;;;;;;;6.30;2.72;;;19.80;57.60;;;;;;5123580;27;47677;-69
2023/06/13 01:37:01;;;;;;;6.07;2.90;;;19.80;57.70;;;;;;5121729;27;45875;-71
2023/06/13 01:39:28;;;;;;;7.10;3.38;;;19.80;57.50;;;;;;5125175;27;45368;-69
2023/06/13 01:41:55;;;;;;;8.25;3.20;;;19.70;57.00;;;;;;5122189;27;45225;-69
2023/06/13 01:44:23;;;;;;;6.97;3.00;;;19.70;56.70;;;;;;5117342;27;46633;-69
2023/06/13 01:46:58;;;;;;;7.57;2.83;;;19.80;56.40;;;;;;5123441;27;45507;-69
2023/06/13 01:49:35;;;;;;;6.30;3.13;;;19.70;56.50;;;;;;5125440;27;45378;-69
2023/06/13 01:52:12;;;;;;;5.10;2.70;;;19.70;57.00;;;;;;5116296;27;45386;-69
2023/06/13 01:54:46;;;;;;;5.75;3.38;;;19.70;56.70;;;;;;5123374;27;48071;-70
2023/06/13 01:57:17;;;;;;;3.92;2.80;;;19.70;56.30;;;;;;5121642;27;45464;-69
2023/06/13 01:59:47;;;;;;;9.55;2.88;;;19.70;56.10;;;;;;5118296;27;45371;-69
2023/06/13 02:02:15;;;;;;;7.95;3.05;;;19.70;56.20;;;;;;5120915;27;45309;-69
2023/06/13 02:04:43;;;;;;;6.63;2.67;;;19.60;56.20;;;;;;5120720;27;45373;-69
2023/06/13 02:07:10;;;;;;;5.15;2.70;;;19.70;56.20;;;;;;5120909;27;45547;-69
2023/06/13 02:09:37;;;;;;;5.95;2.88;;;19.70;56.40;;;;;;5118368;27;45386;-70
2023/06/13 02:12:05;;;;;;;6.75;2.97;;;19.60;56.20;;;;;;5113930;27;45409;-70
2023/06/13 02:14:32;;;;;;;4.63;2.97;;;19.60;56.00;;;;;;5123018;27;45307;-69
2023/06/13 02:17:00;;;;;;;5.90;2.83;;;19.60;56.00;;;;;;5124176;27;45571;-70
2023/06/13 02:19:27;;;;;;;6.65;3.05;;;19.70;55.90;;;;;;5111801;27;45244;-70
2023/06/13 02:21:54;;;;;;;9.45;3.17;;;19.70;55.10;;;;;;5116487;27;45324;-70
2023/06/13 02:24:21;;;;;;;6.53;3.10;;;19.80;55.50;;;;;;5123563;27;45328;-70
2023/06/13 02:26:49;;;;;;;6.30;2.80;;;19.80;55.50;;;;;;5118248;27;45379;-69
2023/06/13 02:29:18;;;;;;;5.25;2.80;;;19.80;56.30;;;;;;5114685;27;45494;-69
2023/06/13 02:31:45;;;;;;;6.40;2.88;;;19.70;55.70;;;;;;5119506;27;45391;-69
2023/06/13 02:34:13;;;;;;;4.85;3.00;;;19.70;56.10;;;;;;5119511;27;46504;-69
2023/06/13 02:36:40;;;;;;;4.95;2.80;;;19.60;56.20;;;;;;5117240;27;45326;-70
2023/06/13 02:39:08;;;;;;;4.82;3.00;;;19.60;56.60;;;;;;5120272;27;45346;-70
2023/06/13 02:41:34;;;;;;;8.75;2.85;;;19.60;56.30;;;;;;5117268;27;45498;-69
2023/06/13 02:44:02;;;;;;;7.97;2.92;;;19.70;55.20;;;;;;5118297;27;46346;-70
2023/06/13 02:46:28;;;;;;;13.52;3.33;;;19.70;56.40;;;;;;5118529;27;45452;-70
2023/06/13 02:48:56;;;;;;;6.03;2.72;;;19.70;56.10;;;;;;5110643;27;45399;-70
2023/06/13 02:51:24;;;;;;;6.13;3.30;;;19.60;55.80;;;;;;5114567;27;45363;-69
2023/06/13 02:53:51;;;;;;;6.13;2.90;;;19.60;57.00;;;;;;5113704;27;45592;-69
2023/06/13 02:56:17;;;;;;;9.30;2.92;;;19.50;55.90;;;;;;5121721;27;45311;-70
2023/06/13 02:58:44;;;;;;;7.95;3.75;;;19.50;56.10;;;;;;5118241;27;45379;-69
2023/06/13 03:01:12;;;;;;;8.52;2.95;;;19.50;56.20;;;;;;5123204;27;45479;-70
2023/06/13 03:03:39;;;;;;;3.95;2.85;;;19.40;56.20;;;;;;5115105;27;46237;-69
2023/06/13 03:06:05;;;;;;;4.85;3.10;;;19.30;56.60;;;;;;5115747;27;45243;-70
2023/06/13 03:08:33;;;;;;;9.40;3.17;;;19.30;57.00;;;;;;5111320;27;45326;-69
2023/06/13 03:11:00;;;;;;;5.85;3.15;;;19.20;57.40;;;;;;5111458;27;45428;-70
2023/06/13 03:13:28;;;;;;;6.45;3.25;;;19.20;57.50;;;;;;5109246;27;46595;-69
2023/06/13 03:15:57;;;;;;;8.82;3.25;;;19.20;57.20;;;;;;5123145;27;45290;-69
2023/06/13 03:18:24;;;;;;;4.78;2.90;;;19.20;57.30;;;;;;5123816;27;45449;-69
2023/06/13 03:20:52;;;;;;;9.10;3.33;;;19.20;57.50;;;;;;5116759;27;45454;-69
2023/06/13 03:23:18;;;;;;;5.35;3.28;;;19.20;57.70;;;;;;5113297;27;47509;-70
2023/06/13 03:25:47;;;;;;;6.03;3.13;;;19.20;58.80;;;;;;5122241;27;45368;-71
2023/06/13 03:28:13;;;;;;;8.27;3.50;;;19.20;58.20;;;;;;5123828;27;45290;-70
2023/06/13 03:30:40;;;;;;;6.60;3.17;;;19.20;58.40;;;;;;5123752;27;45461;-70
2023/06/13 03:33:07;;;;;;;4.47;3.20;;;19.20;59.00;;;;;;5122605;27;45471;-70
2023/06/13 03:35:35;;;;;;;6.68;3.15;;;19.20;58.30;;;;;;5122466;27;45412;-69
2023/06/13 03:38:02;;;;;;;11.60;3.28;;;19.20;58.50;;;;;;5120012;27;45528;-69
2023/06/13 03:40:29;;;;;;;6.43;2.90;;;19.20;58.90;;;;;;5121304;27;45404;-69
2023/06/13 03:42:58;;;;;;;7.45;3.40;;;19.20;58.20;;;;;;5116850;27;45499;-70
2023/06/13 03:45:25;;;;;;;6.82;3.58;;;19.20;58.00;;;;;;5120959;27;45318;-69
2023/06/13 03:47:52;;;;;;;10.32;3.38;;;19.20;58.10;;;;;;5115275;27;45208;-69
2023/06/13 03:50:19;;;;;;;8.45;3.28;;;19.20;58.50;;;;;;5121693;27;45262;-70
2023/06/13 03:52:46;;;;;;;9.43;3.78;;;19.20;58.50;;;;;;5123092;27;47098;-69
2023/06/13 03:55:13;;;;;;;9.90;3.35;;;19.20;58.60;;;;;;5118028;27;46540;-69
2023/06/13 03:57:40;;;;;;;10.30;3.42;;;19.20;58.40;;;;;;5117723;27;45427;-69
2023/06/13 04:00:10;;;;;;;6.75;3.08;;;19.10;58.80;;;;;;5119712;27;45451;-69
2023/06/13 04:02:37;;;;;;;10.32;3.17;;;19.20;59.10;;;;;;5121529;27;47298;-70
2023/06/13 04:05:06;;;;;;;8.32;3.63;;;19.20;59.60;;;;;;5121565;27;45405;-69
2023/06/13 04:07:33;;;;;;;6.63;3.20;;;19.20;59.40;;;;;;5123837;27;45357;-70
2023/06/13 04:10:01;;;;;;;10.73;4.25;;;19.20;59.90;;;;;;5115367;27;45561;-69
2023/06/13 04:12:28;;;;;;;6.68;3.33;;;19.20;59.60;;;;;;5120627;27;46375;-69
2023/06/13 04:14:55;;;;;;;5.07;3.15;;;19.20;59.90;;;;;;5113788;27;45378;-70
2023/06/13 04:17:23;;;;;;;6.15;3.13;;;19.20;60.50;;;;;;5113008;27;45410;-69
2023/06/13 04:19:50;;;;;;;4.28;2.85;;;19.20;60.00;;;;;;5115435;27;45550;-70
2023/06/13 04:22:18;;;;;;;5.75;3.00;;;19.60;60.30;;;;;;5117331;27;47322;-69
2023/06/13 04:24:44;;;;;;;9.20;3.58;;;19.90;59.80;;;;;;5118836;27;45464;-69
2023/06/13 04:27:13;;;;;;;6.13;2.70;;;20.10;59.20;;;;;;5112003;27;45282;-70
2023/06/13 04:29:43;;;;;;;4.65;2.95;;;20.20;59.80;;;;;;5108867;27;45420;-69
2023/06/13 04:32:13;;;;;;;3.70;2.50;;;20.20;60.50;;;;;;5117993;27;46929;-69
2023/06/13 04:34:44;;;;;;;6.70;3.13;;;20.50;61.00;;;;;;5112300;27;45214;-69
2023/06/13 04:37:11;;;;;;;4.95;2.78;;;20.50;59.40;;;;;;5119057;27;45550;-70
2023/06/13 04:39:38;;;;;;;3.38;2.70;;;20.50;59.20;;;;;;5120754;27;45403;-70
2023/06/13 04:42:05;;;;;;;3.88;2.63;;;20.60;59.70;;;;;;5119024;27;47527;-69
2023/06/13 04:44:33;;;;;;;6.22;2.90;;;20.60;59.50;;;;;;5119505;27;46116;-69
2023/06/13 04:47:01;;;;;;;7.45;3.53;;;20.60;59.60;;;;;;5121777;27;45306;-70
2023/06/13 04:49:28;;;;;;;7.88;2.83;;;20.60;59.90;;;;;;5118287;27;45483;-69
2023/06/13 04:51:57;;;;;;;5.30;2.95;;;20.60;59.60;;;;;;5122577;27;48298;-70
2023/06/13 04:54:25;;;;;;;4.18;2.80;;;20.50;59.40;;;;;;5118587;27;45471;-70
2023/06/13 04:56:52;;;;;;;7.05;3.30;;;20.50;60.00;;;;;;5114647;27;45395;-70
2023/06/13 04:59:20;;;;;;;6.85;3.15;;;20.60;60.30;;;;;;5120363;27;45310;-70
2023/06/13 05:01:47;;;;;;;4.82;2.67;;;20.70;60.10;;;;;;5123483;27;47235;-70
2023/06/13 05:04:15;;;;;;;5.88;2.92;;;20.70;59.90;;;;;;5116853;27;45696;-69
2023/06/13 05:06:42;;;;;;;5.72;3.05;;;20.70;59.20;;;;;;5118058;27;45626;-70
2023/06/13 05:09:13;;;;;;;6.88;2.70;;;20.80;60.30;;;;;;5123959;27;45362;-70
2023/06/13 05:11:40;;;;;;;5.18;3.00;;;20.80;59.80;;;;;;5124486;27;46200;-70
2023/06/13 05:14:07;;;;;;;4.18;2.67;;;20.90;59.80;;;;;;5121534;27;45665;-70
2023/06/13 05:16:34;;;;;;;6.45;2.80;;;21.00;60.10;;;;;;5123958;27;45339;-71
2023/06/13 05:19:01;;;;;;;3.72;2.72;;;21.20;59.90;;;;;;5122326;27;45431;-69
2023/06/13 05:21:28;;;;;;;5.68;2.63;;;21.40;59.30;;;;;;5122181;27;48858;-70
2023/06/13 05:23:56;;;;;;;4.05;2.67;;;21.40;59.00;;;;;;5121612;27;45562;-69
2023/06/13 05:26:24;;;;;;;5.20;3.15;;;21.50;59.40;;;;;;5118590;27;45736;-69
2023/06/13 05:28:51;;;;;;;8.88;2.78;;;21.60;59.40;;;;;;5117022;27;45510;-69
2023/06/13 05:31:17;;;;;;;7.35;2.95;;;21.50;58.10;;;;;;5118335;27;46321;-68
2023/06/13 05:33:44;;;;;;;5.72;3.15;;;21.40;58.50;;;;;;5127184;27;45409;-70
2023/06/13 05:36:12;;;;;;;6.82;2.50;;;21.40;59.00;;;;;;5125758;27;45425;-69
2023/06/13 05:38:40;;;;;;;6.32;2.40;;;21.30;58.70;;;;;;5122614;27;45435;-70
2023/06/13 05:41:07;;;;;;;5.40;3.30;;;21.30;59.20;;;;;;5119421;27;46287;-70
2023/06/13 05:43:35;;;;;;;6.22;2.80;;;21.30;59.30;;;;;;5120171;27;45494;-69
2023/06/13 05:46:02;;;;;;;5.57;2.80;;;21.30;59.20;;;;;;5125829;27;45351;-68
2023/06/13 05:48:29;;;;;;;4.00;2.65;;;21.30;58.90;;;;;;5116383;27;45363;-68
2023/06/13 05:50:56;;;;;;;6.32;2.80;;;21.30;58.80;;;;;;5123706;27;47531;-69
2023/06/13 05:53:23;;;;;;;5.32;2.33;;;21.30;58.70;;;;;;5125322;27;45303;-69
2023/06/13 05:55:50;;;;;;;3.47;2.53;;;21.40;58.90;;;;;;5125350;27;45420;-69
2023/06/13 05:58:16;;;;;;;6.05;2.60;;;21.40;59.30;;;;;;5118529;27;45583;-69
2023/06/13 06:00:45;;;;;;;5.85;2.70;;;21.40;59.00;;;;;;5108851;27;45279;-69
2023/06/13 06:03:13;;;;;;;3.40;2.70;;;21.40;59.10;;;;;;5119715;27;45298;-69
2023/06/13 06:05:40;;;;;;;4.65;2.80;;;21.40;59.20;;;;;;5125439;27;45356;-69
2023/06/13 06:08:07;;;;;;;5.45;2.95;;;21.40;58.60;;;;;;5117293;27;45527;-70
2023/06/13 06:10:34;;;;;;;5.65;2.63;;;21.40;59.20;;;;;;5124691;27;47183;-69
2023/06/13 06:13:01;;;;;;;4.40;2.42;;;21.40;59.10;;;;;;5119743;27;45418;-69
2023/06/13 06:15:27;;;;;;;6.10;2.78;;;21.50;59.00;;;;;;5118090;27;45387;-70
2023/06/13 06:17:56;;;;;;;3.33;2.38;;;21.40;58.90;;;;;;5117170;27;45416;-69
2023/06/13 06:20:22;;;;;;;8.20;3.90;;;21.50;60.00;;;;;;5124344;27;45340;-70
2023/06/13 06:22:49;;;;;;;4.70;2.67;;;21.50;60.00;;;;;;5123450;27;45471;-70
2023/06/13 06:25:19;;;;;;;3.80;2.40;;;21.50;58.50;;;;;;5126491;27;45546;-69
2023/06/13 06:27:46;;;;;;;5.50;2.40;;;21.50;58.70;;;;;;5125037;27;45588;-69
2023/06/13 06:30:14;;;;;;;6.03;2.35;;;21.50;58.60;;;;;;5114301;27;45344;-70
2023/06/13 06:32:42;;;;;;;3.97;2.63;;;21.50;59.80;;;;;;5110051;27;45826;-70
2023/06/13 06:35:11;;;;;;;2.97;2.50;;;21.60;57.30;;;;;;5121133;27;45249;-70
2023/06/13 06:37:38;;;;;;;5.38;2.70;;;21.60;58.00;;;;;;5122236;27;45587;-70
2023/06/13 06:40:06;;;;;;;4.38;2.38;;;21.60;58.20;;;;;;5120455;27;45509;-70
2023/06/13 06:42:33;;;;;;;4.15;2.47;;;21.70;58.80;;;;;;5116119;27;45358;-70
2023/06/13 06:44:59;;;;;;;4.85;2.75;;;21.70;58.60;;;;;;5123842;27;45340;-70
2023/06/13 06:47:26;;;;;;;4.15;2.70;;;21.70;58.50;;;;;;5114327;27;45533;-70
2023/06/13 06:49:53;;;;;;;4.38;3.30;;;21.70;59.10;;;;;;5115787;27;45311;-70
2023/06/13 06:52:21;;;;;;;3.80;2.45;;;21.70;59.10;;;;;;5120979;27;45336;-70
2023/06/13 06:54:48;;;;;;;4.68;2.40;;;21.70;58.80;;;;;;5114009;27;45427;-70
2023/06/13 06:57:15;;;;;;;4.80;2.58;;;21.70;59.30;;;;;;5120158;27;45337;-70
2023/06/13 06:59:42;;;;;;;3.53;2.15;;;21.70;59.10;;;;;;5115583;27;46418;-69
2023/06/13 07:02:09;;;;;;;4.05;2.55;;;21.70;58.00;;;;;;5120897;27;45450;-70
2023/06/13 07:04:35;;;;;;;6.50;2.58;;;21.70;58.60;;;;;;5119815;27;45217;-70
2023/06/13 07:07:02;;;;;;;4.22;2.50;;;21.70;58.70;;;;;;5117213;27;45549;-69
2023/06/13 07:09:30;;;;;;;6.70;2.72;;;21.80;59.10;;;;;;5120546;27;45360;-70
2023/06/13 07:11:57;;;;;;;4.07;2.40;;;21.80;58.80;;;;;;5117185;27;45486;-70
2023/06/13 07:14:25;;;;;;;3.17;2.42;;;21.80;59.30;;;;;;5114304;27;45466;-70
2023/06/13 07:16:51;;;;;;;3.53;2.05;;;21.80;58.60;;;;;;5119340;27;45651;-69
2023/06/13 07:19:18;;;;;;;4.05;2.40;;;21.80;58.50;;;;;;5123433;27;47688;-70
2023/06/13 07:21:45;;;;;;;2.60;2.17;;;21.90;58.50;;;;;;5116565;27;45379;-70
2023/06/13 07:24:12;;;;;;;3.47;2.38;;;21.90;59.10;;;;;;5117775;27;45449;-70
2023/06/13 07:26:40;;;;;;;5.75;2.45;;;21.90;58.90;;;;;;5116948;27;45591;-69
2023/06/13 07:29:07;;;;;;;2.78;2.17;;;21.90;58.90;;;;;;5115645;27;46560;-70
2023/06/13 07:31:33;;;;;;;6.13;2.75;;;21.90;58.50;;;;;;5120060;27;45318;-70
2023/06/13 07:34:00;;;;;;;3.13;2.40;;;21.90;57.70;;;;;;5119218;27;45594;-70
2023/06/13 07:36:27;;;;;;;4.10;2.42;;;22.00;58.60;;;;;;5115801;27;45501;-70
2023/06/13 07:38:54;;;;;;;4.95;2.10;;;22.00;57.70;;;;;;5121995;27;48141;-70
2023/06/13 07:41:21;;;;;;;3.92;2.72;;;22.00;58.40;;;;;;5118657;27;45425;-70
2023/06/13 07:43:49;;;;;;;4.97;2.60;;;22.00;57.10;;;;;;5116564;27;45624;-70
2023/06/13 07:46:16;;;;;;;3.60;2.35;;;22.00;56.40;;;;;;5118466;27;45389;-69
2023/06/13 07:48:43;;;;;;;6.82;2.42;;;22.00;58.30;;;;;;5122799;27;45317;-70
2023/06/13 07:51:12;;;;;;;3.53;2.15;;;22.00;57.10;;;;;;5122601;27;45391;-70
2023/06/13 07:53:40;;;;;;;8.85;2.75;;;22.00;56.20;;;;;;5119806;27;45522;-70
2023/06/13 07:56:07;;;;;;;3.88;2.00;;;22.00;56.40;;;;;;5119107;27;45564;-70
2023/06/13 07:58:34;;;;;;;5.07;2.28;;;22.00;58.70;;;;;;5110325;27;47984;-69
2023/06/13 08:01:03;;;;;;;6.70;2.67;;;22.00;56.20;;;;;;5110643;27;45330;-70
2023/06/13 08:03:29;;;;;;;6.13;2.67;;;22.00;57.80;;;;;;5111589;27;45419;-70
2023/06/13 08:05:56;;;;;;;3.97;2.28;;;22.00;56.20;;;;;;5110360;27;45550;-70
2023/06/13 08:08:23;;;;;;;4.68;2.70;;;22.00;56.20;;;;;;5112346;27;46539;-70
2023/06/13 08:10:50;;;;;;;5.47;2.10;;;22.10;57.80;;;;;;5115819;27;45403;-69
2023/06/13 08:13:17;;;;;;;3.38;2.30;;;22.10;56.10;;;;;;5113653;27;45466;-70
2023/06/13 08:15:44;;;;;;;3.60;2.40;;;22.10;57.60;;;;;;5117893;27;45433;-70
2023/06/13 08:18:13;;;;;;;3.80;2.13;;;22.10;56.30;;;;;;5120550;27;47509;-70
2023/06/13 08:20:40;;;;;;;4.00;2.05;;;22.10;57.00;;;;;;5120488;27;45420;-70
2023/06/13 08:23:07;;;;;;;3.83;2.45;;;22.10;57.50;;;;;;5112192;27;45486;-70
2023/06/13 08:25:34;;;;;;;5.78;2.60;;;22.10;56.30;;;;;;5110772;27;45391;-70
2023/06/13 08:28:00;;;;;;;3.65;1.90;;;22.20;56.40;;;;;;5115070;27;45470;-70
2023/06/13 08:30:27;;;;;;;4.57;2.05;;;22.20;59.00;;;;;;5118186;27;45564;-70
2023/06/13 08:32:54;;;;;;;5.40;2.22;;;22.10;57.30;;;;;;5118202;27;45276;-70
2023/06/13 08:35:22;;;;;;;6.32;2.60;;;22.20;56.40;;;;;;5119480;27;45481;-69
2023/06/13 08:37:49;;;;;;;2.30;1.75;;;22.20;57.80;;;;;;5121333;27;45406;-69
2023/06/13 08:40:19;;;;;;;7.40;2.05;;;22.20;57.80;;;;;;5120054;27;45650;-70
2023/06/13 08:42:46;;;;;;;3.20;1.73;;;22.20;58.10;;;;;;5111929;27;45328;-70
2023/06/13 08:45:13;;;;;;;2.40;1.90;;;22.20;57.20;;;;;;5108132;27;45308;-70
2023/06/13 08:47:46;;;;;;;2.58;1.73;;;22.20;58.90;;;;;;5115571;27;46651;-70
2023/06/13 08:50:14;;;;;;;5.32;1.83;;;22.10;58.30;;;;;;5120949;27;45411;-70
2023/06/13 08:52:45;;;;;;;3.85;2.13;;;22.10;58.70;;;;;;5125326;27;45436;-70
2023/06/13 08:55:14;;;;;;;3.90;1.88;;;22.20;56.30;;;;;;5116588;27;45311;-70
2023/06/13 08:57:43;;;;;;;3.40;2.15;;;22.20;57.00;;;;;;5125279;27;46063;-70
2023/06/13 09:00:11;;;;;;;3.85;1.90;;;22.20;58.10;;;;;;5123910;27;45491;-70
2023/06/13 09:02:42;;;;;;;2.25;1.55;;;22.20;57.90;;;;;;5128246;27;45456;-70
2023/06/13 09:05:13;;;;;;;4.78;2.60;;;22.20;57.70;;;;;;5125869;27;45310;-70
2023/06/13 09:07:42;;;;;;;5.35;2.25;;;22.30;53.60;;;;;;5117486;27;45574;-70
2023/06/13 09:10:10;;;;;;;3.97;2.35;;;22.30;56.50;;;;;;5125181;27;45336;-70
2023/06/13 09:12:37;;;;;;;2.42;1.98;;;22.20;58.10;;;;;;5126218;27;45394;-70
2023/06/13 09:15:05;;;;;;;2.25;1.63;;;22.20;57.40;;;;;;5126178;27;45321;-70
2023/06/13 09:17:33;;;;;;;4.18;2.00;;;22.30;57.60;;;;;;5117254;27;48092;-70
2023/06/13 09:20:00;;;;;;;1.75;1.50;;;22.20;59.20;;;;;;5123955;27;45738;-70
2023/06/13 09:22:28;;;;;;;3.28;2.00;;;22.20;59.70;;;;;;5125738;27;45309;-70
2023/06/13 09:24:57;;;;;;;2.65;1.98;;;22.20;57.80;;;;;;5126620;27;45417;-70
2023/06/13 09:27:24;;;;;;;9.48;2.30;;;22.20;56.50;;;;;;5125162;27;46291;-70
2023/06/13 09:29:51;;;;;;;2.95;1.52;;;22.20;58.20;;;;;;5125257;27;45435;-69
2023/06/13 09:32:19;;;;;;;6.38;2.35;;;22.30;57.70;;;;;;5125837;27;45296;-69
2023/06/13 09:34:49;;;;;;;3.08;2.13;;;22.30;56.40;;;;;;5125413;27;45551;-69
2023/06/13 09:37:16;;;;;;;3.85;1.90;;;22.30;54.80;;;;;;5122770;27;46330;-69
2023/06/13 09:39:50;;;;;;;2.72;1.63;;;22.30;55.30;;;;;;5123181;27;45334;-70
2023/06/13 09:42:22;;;;;;;2.13;1.65;;;22.30;57.20;;;;;;5113647;27;45295;-69
2023/06/13 09:44:49;;;;;;;6.22;2.53;;;22.30;59.20;;;;;;5122951;27;45381;-70
2023/06/13 09:47:22;;;;;;;3.92;2.20;;;22.30;55.10;;;;;;5121679;27;47494;-70
2023/06/13 09:49:52;;;;;;;2.95;1.85;;;22.30;57.50;;;;;;5126327;27;45286;-70
2023/06/13 09:52:23;;;;;;;2.22;1.55;;;22.40;57.70;;;;;;5120687;27;45445;-70
2023/06/13 09:54:51;;;;;;;3.42;2.03;;;22.30;58.50;;;;;;5127893;27;45425;-70
2023/06/13 09:57:18;;;;;;;2.83;1.90;;;22.30;58.90;;;;;;5124480;27;45466;-69
2023/06/13 09:59:48;;;;;;;3.00;1.55;;;22.30;56.50;;;;;;5125113;27;45408;-70
2023/06/13 10:02:15;;;;;;;3.10;1.70;;;22.30;59.20;;;;;;5124340;27;45444;-70
2023/06/13 10:04:42;;;;;;;3.80;2.20;;;22.30;58.10;;;;;;5126161;27;45267;-70
2023/06/13 10:07:10;;;;;;;3.28;2.38;;;22.30;56.50;;;;;;5124356;27;47091;-69
2023/06/13 10:09:37;;;;;;;5.05;2.30;;;22.30;55.50;;;;;;5124965;27;45352;-70
2023/06/13 10:12:07;;;;;;;2.10;1.48;;;22.30;57.90;;;;;;5118827;27;45571;-69
2023/06/13 10:14:41;;;;;;;2.50;1.67;;;22.30;59.70;;;;;;5123662;27;45625;-70
2023/06/13 10:17:12;;;;;;;6.50;1.83;;;22.30;56.50;;;;;;5117518;27;48225;-69
2023/06/13 10:19:40;;;;;;;3.05;1.65;;;22.40;58.50;;;;;;5123594;27;45854;-70
2023/06/13 10:22:08;;;;;;;1.67;1.40;;;22.40;58.90;;;;;;5113988;27;45279;-69
2023/06/13 10:24:37;;;;;;;2.42;1.80;;;22.40;59.70;;;;;;5122854;27;45422;-70
2023/06/13 10:27:06;;;;;;;3.03;2.08;;;22.40;59.00;;;;;;5113711;27;48130;-70
2023/06/13 10:30:01;;;;;;;2.80;1.90;;;22.40;59.30;;;;;;5113601;27;45467;-69
2023/06/13 10:32:50;;;;;;;3.92;2.13;;;22.40;58.60;;;;;;5116560;27;45335;-69
2023/06/13 10:35:44;;;;;;;2.15;1.83;;;22.40;58.40;;;;;;5118384;27;45453;-70
2023/06/13 10:38:54;;;;;;;2.60;1.63;;;22.40;58.00;;;;;;5122699;27;47038;-70
2023/06/13 10:41:44;;;;;;;2.97;1.70;;;22.40;58.10;;;;;;5080708;27;45390;-69
2023/06/13 10:44:16;;;;;;;2.55;1.60;;;22.40;58.30;;;;;;5117147;27;45364;-70
2023/06/13 10:46:44;;;;;;;6.22;2.55;;;22.40;59.50;;;;;;5122386;27;45603;-70
2023/06/13 10:49:16;;;;;;;4.10;2.25;;;22.50;58.60;;;;;;5121191;27;47989;-70
2023/06/13 10:51:44;;;;;;;5.32;2.10;;;22.40;57.80;;;;;;5116002;27;45440;-71
2023/06/13 10:54:12;;;;;;;4.35;2.45;;;22.40;58.30;;;;;;5119824;27;45355;-70
2023/06/13 10:56:42;;;;;;;3.00;2.70;;;22.20;58.30;;;;;;5115953;27;45500;-69
2023/06/13 10:59:10;;;;;;;6.60;2.65;;;22.20;58.80;;;;;;5115428;27;48579;-69
2023/06/13 11:01:38;;;;;;;5.10;2.65;;;22.10;55.80;;;;;;5124031;27;45263;-69
2023/06/13 11:04:10;;;;;;;3.70;2.67;;;22.10;57.00;;;;;;5116298;27;45374;-69
2023/06/13 11:06:38;;;;;;;3.80;2.00;;;22.20;56.40;;;;;;5108707;27;45287;-69
2023/06/13 11:09:09;;;;;;;4.38;1.90;;;22.20;58.70;;;;;;5120352;27;47630;-70
2023/06/13 11:11:42;;;;;;;2.25;1.60;;;22.20;56.70;;;;;;5112266;27;45410;-70
2023/06/13 11:14:10;;;;;;;3.40;1.92;;;22.30;59.10;;;;;;5115325;27;45311;-70
2023/06/13 11:16:38;;;;;;;4.70;1.92;;;22.30;59.10;;;;;;5121058;27;45548;-70
2023/06/13 11:19:07;;;;;;;2.38;1.90;;;22.30;58.70;;;;;;5107066;27;47756;-70
2023/06/13 11:21:34;;;;;;;4.15;1.83;;;22.30;59.40;;;;;;5116050;27;46414;-70
2023/06/13 11:24:04;;;;;;;1.48;1.35;;;22.30;59.40;;;;;;5116127;27;45622;-71
2023/06/13 11:26:35;;;;;;;4.93;1.92;;;22.30;59.60;;;;;;5117114;27;45315;-70
2023/06/13 11:29:03;;;;;;;1.92;1.52;;;22.30;58.40;;;;;;5123807;27;49210;-70
2023/06/13 11:31:31;;;;;;;4.25;2.15;;;22.30;59.30;;;;;;5123976;27;45306;-70
2023/06/13 11:34:03;;;;;;;2.47;1.88;;;22.30;59.30;;;;;;5108477;27;45294;-70
2023/06/13 11:36:35;;;;;;;3.47;2.13;;;22.30;58.20;;;;;;5124137;27;45331;-70
2023/06/13 11:39:08;;;;;;;1.85;1.67;;;22.30;58.90;;;;;;5125222;27;47288;-71
2023/06/13 11:41:36;;;;;;;2.22;1.73;;;22.30;59.90;;;;;;5118790;27;45761;-70
2023/06/13 11:44:03;;;;;;;4.40;1.77;;;22.30;60.00;;;;;;5124182;27;45413;-70
2023/06/13 11:46:30;;;;;;;2.40;2.10;;;22.30;60.30;;;;;;5123829;27;45263;-70
2023/06/13 11:48:58;;;;;;;2.45;1.98;;;22.30;58.60;;;;;;5123497;27;45349;-70
2023/06/13 11:51:28;;;;;;;2.05;1.63;;;22.30;59.30;;;;;;5122805;27;45334;-70
2023/06/13 11:53:57;;;;;;;5.40;3.13;;;22.30;58.80;;;;;;5122984;27;45459;-70
2023/06/13 11:56:27;;;;;;;3.17;2.15;;;22.20;59.20;;;;;;5115061;27;45673;-70
2023/06/13 11:58:55;;;;;;;2.33;1.73;;;22.20;59.90;;;;;;5116496;27;45986;-70
2023/06/13 12:01:25;;;;;;;3.08;1.98;;;22.20;60.00;;;;;;5117284;27;45464;-70
2023/06/13 12:03:53;;;;;;;2.20;1.50;;;22.30;60.30;;;;;;5117333;27;45555;-70
2023/06/13 12:06:20;;;;;;;4.57;2.80;;;22.30;60.10;;;;;;5111659;27;45282;-70
2023/06/13 12:08:48;;;;;;;1.90;1.50;;;22.30;59.40;;;;;;5102711;27;45237;-70
2023/06/13 12:11:16;;;;;;;2.33;1.10;;;22.30;60.40;;;;;;5113746;27;45379;-69
2023/06/13 12:13:55;;;;;;;2.05;1.30;;;22.40;60.40;;;;;;5113009;27;45631;-70
2023/06/13 12:16:26;;;;;;;2.88;1.38;;;22.40;60.70;;;;;;5115600;27;45509;-69
2023/06/13 12:18:54;;;;;;;1.90;1.40;;;22.40;60.70;;;;;;5120032;27;45595;-70
2023/06/13 12:21:22;;;;;;;1.33;1.15;;;22.30;60.80;;;;;;5118093;27;45414;-70
2023/06/13 12:23:49;;;;;;;2.72;1.90;;;22.40;60.30;;;;;;5115786;27;45615;-69
2023/06/13 12:26:17;;;;;;;7.35;2.42;;;22.30;60.80;;;;;;5121553;27;45319;-70
2023/06/13 12:28:44;;;;;;;4.55;2.95;;;22.30;60.50;;;;;;5123488;27;45468;-71
2023/06/13 12:31:12;;;;;;;4.95;2.72;;;22.30;60.00;;;;;;5115885;27;45395;-69
2023/06/13 12:33:41;;;;;;;5.53;3.00;;;22.10;56.70;;;;;;5123375;27;45330;-69
2023/06/13 12:36:09;;;;;;;4.85;3.15;;;22.10;60.10;;;;;;5121844;27;45360;-69
2023/06/13 12:38:36;;;;;;;2.70;1.80;;;22.20;60.20;;;;;;5119390;27;47537;-70
2023/06/13 12:41:13;;;;;;;2.75;1.73;;;22.20;60.70;;;;;;5120115;27;45460;-70
2023/06/13 12:43:43;;;;;;;1.50;1.20;;;22.30;60.40;;;;;;5119986;27;45437;-69
2023/06/13 12:46:12;;;;;;;2.25;1.35;;;22.30;60.60;;;;;;5122849;27;45507;-69
2023/06/13 12:48:39;;;;;;;1.50;1.40;;;22.30;60.70;;;;;;5122418;27;45283;-69
2023/06/13 12:51:07;;;;;;;2.25;1.48;;;22.30;60.80;;;;;;5120453;27;45479;-71